sensor_id;sensor_type;location;lat;lon;timestamp;pressure;altitude;pressure_sealevel;temperature;humidity
50394;BME280;36308;46.312;25.288;2023-07-08T00:02:12;96279.75;;;19.57;71.21
50394;BME280;36308;46.312;25.288;2023-07-08T00:04:39;96272.16;;;19.54;71.30
50394;BME280;36308;46.312;25.288;2023-07-08T00:07:05;96282.47;;;19.57;71.30
50394;BME280;36308;46.312;25.288;2023-07-08T00:09:35;96280.53;;;19.57;71.29
50394;BME280;36308;46.312;25.288;2023-07-08T00:12:01;96290.94;;;19.55;71.43
50394;BME280;36308;46.312;25.288;2023-07-08T00:14:29;96300.44;;;19.58;71.64
50394;BME280;36308;46.312;25.288;2023-07-08T00:16:54;96298.00;;;19.56;71.45
50394;BME280;36308;46.312;25.288;2023-07-08T00:19:20;96293.38;;;19.57;71.88
50394;BME280;36308;46.312;25.288;2023-07-08T00:21:49;96297.69;;;19.58;71.82
50394;BME280;36308;46.312;25.288;2023-07-08T00:24:14;96299.63;;;19.57;71.92
50394;BME280;36308;46.312;25.288;2023-07-08T00:26:40;96287.44;;;19.55;71.79
50394;BME280;36308;46.312;25.288;2023-07-08T00:29:09;96283.06;;;19.54;71.94
50394;BME280;36308;46.312;25.288;2023-07-08T00:31:38;96286.94;;;19.53;71.84
50394;BME280;36308;46.312;25.288;2023-07-08T00:34:04;96299.13;;;19.55;71.96
50394;BME280;36308;46.312;25.288;2023-07-08T00:36:30;96293.97;;;19.54;71.84
50394;BME280;36308;46.312;25.288;2023-07-08T00:38:56;96291.75;;;19.56;71.94
50394;BME280;36308;46.312;25.288;2023-07-08T00:41:35;96278.25;;;19.51;71.93
50394;BME280;36308;46.312;25.288;2023-07-08T00:44:03;96291.75;;;19.56;71.84
50394;BME280;36308;46.312;25.288;2023-07-08T00:51:36;96301.06;;;19.55;71.92
50394;BME280;36308;46.312;25.288;2023-07-08T00:54:10;96308.09;;;19.56;72.00
50394;BME280;36308;46.312;25.288;2023-07-08T00:56:44;96301.34;;;19.53;71.98
50394;BME280;36308;46.312;25.288;2023-07-08T00:59:33;96301.84;;;19.55;72.07
50394;BME280;36308;46.312;25.288;2023-07-08T01:02:04;96307.31;;;19.55;72.03
50394;BME280;36308;46.312;25.288;2023-07-08T01:04:37;96304.88;;;19.54;71.98
50394;BME280;36308;46.312;25.288;2023-07-08T01:07:04;96310.34;;;19.54;71.86
50394;BME280;36308;46.312;25.288;2023-07-08T01:09:36;96311.13;;;19.54;71.95
50394;BME280;36308;46.312;25.288;2023-07-08T01:12:07;96305.19;;;19.52;71.73
50394;BME280;36308;46.312;25.288;2023-07-08T01:14:36;96305.53;;;19.51;71.78
50394;BME280;36308;46.312;25.288;2023-07-08T01:17:04;96307.75;;;19.49;71.68
50394;BME280;36308;46.312;25.288;2023-07-08T01:19:30;96315.44;;;19.47;71.72
50394;BME280;36308;46.312;25.288;2023-07-08T01:22:05;96308.34;;;19.46;71.72
50394;BME280;36308;46.312;25.288;2023-07-08T01:24:32;96306.25;;;19.43;71.70
50394;BME280;36308;46.312;25.288;2023-07-08T01:27:01;96320.97;;;19.42;71.80
50394;BME280;36308;46.312;25.288;2023-07-08T01:29:27;96318.25;;;19.42;71.98
50394;BME280;36308;46.312;25.288;2023-07-08T01:31:55;96316.16;;;19.38;71.65
50394;BME280;36308;46.312;25.288;2023-07-08T01:34:21;96321.59;;;19.38;71.48
50394;BME280;36308;46.312;25.288;2023-07-08T01:36:54;96306.78;;;19.31;71.53
50394;BME280;36308;46.312;25.288;2023-07-08T01:39:23;96318.69;;;19.35;71.71
50394;BME280;36308;46.312;25.288;2023-07-08T01:41:48;96318.97;;;19.33;71.52
50394;BME280;36308;46.312;25.288;2023-07-08T01:44:34;96323.94;;;19.31;71.37
50394;BME280;36308;46.312;25.288;2023-07-08T01:47:11;96330.50;;;19.30;71.37
50394;BME280;36308;46.312;25.288;2023-07-08T01:49:39;96332.41;;;19.30;71.28
50394;BME280;36308;46.312;25.288;2023-07-08T01:52:07;96330.00;;;19.28;71.08
50394;BME280;36308;46.312;25.288;2023-07-08T01:54:34;96338.47;;;19.27;71.06
50394;BME280;36308;46.312;25.288;2023-07-08T01:57:00;96336.06;;;19.25;71.00
50394;BME280;36308;46.312;25.288;2023-07-08T01:59:28;96334.75;;;19.23;70.86
50394;BME280;36308;46.312;25.288;2023-07-08T02:01:54;96335.88;;;19.22;70.67
50394;BME280;36308;46.312;25.288;2023-07-08T02:04:21;96328.00;;;19.20;70.72
50394;BME280;36308;46.312;25.288;2023-07-08T02:06:58;96326.38;;;19.19;70.66
50394;BME280;36308;46.312;25.288;2023-07-08T02:09:24;96323.97;;;19.17;70.47
50394;BME280;36308;46.312;25.288;2023-07-08T02:11:56;96328.59;;;19.17;70.43
50394;BME280;36308;46.312;25.288;2023-07-08T02:14:22;96336.28;;;19.15;70.25
50394;BME280;36308;46.312;25.288;2023-07-08T02:16:48;96329.22;;;19.14;70.31
50394;BME280;36308;46.312;25.288;2023-07-08T02:19:13;96333.06;;;19.13;70.29
50394;BME280;36308;46.312;25.288;2023-07-08T02:21:39;96331.44;;;19.12;70.43
50394;BME280;36308;46.312;25.288;2023-07-08T02:24:05;96322.56;;;19.06;70.26
50394;BME280;36308;46.312;25.288;2023-07-08T02:26:31;96322.56;;;19.06;70.28
50394;BME280;36308;46.312;25.288;2023-07-08T02:28:58;96325.59;;;19.05;70.32
50394;BME280;36308;46.312;25.288;2023-07-08T02:31:24;96321.56;;;19.02;70.44
50394;BME280;36308;46.312;25.288;2023-07-08T02:33:51;96328.94;;;19.02;70.29
50394;BME280;36308;46.312;25.288;2023-07-08T02:36:16;96331.47;;;18.98;70.39
50394;BME280;36308;46.312;25.288;2023-07-08T02:38:42;96331.25;;;18.94;70.33
50394;BME280;36308;46.312;25.288;2023-07-08T02:41:07;96326.41;;;18.91;70.23
50394;BME280;36308;46.312;25.288;2023-07-08T02:43:33;96332.47;;;18.88;69.94
50394;BME280;36308;46.312;25.288;2023-07-08T02:45:58;96332.28;;;18.85;69.80
50394;BME280;36308;46.312;25.288;2023-07-08T02:48:24;96326.63;;;18.81;69.67
50394;BME280;36308;46.312;25.288;2023-07-08T02:50:50;96326.13;;;18.79;69.39
50394;BME280;36308;46.312;25.288;2023-07-08T02:53:15;96340.34;;;18.76;69.08
50394;BME280;36308;46.312;25.288;2023-07-08T02:55:41;96330.03;;;18.73;69.13
50394;BME280;36308;46.312;25.288;2023-07-08T02:58:08;96336.09;;;18.70;68.98
50394;BME280;36308;46.312;25.288;2023-07-08T03:00:34;96333.44;;;18.65;68.61
50394;BME280;36308;46.312;25.288;2023-07-08T03:03:03;96339.53;;;18.62;68.89
50394;BME280;36308;46.312;25.288;2023-07-08T03:05:29;96337.38;;;18.58;68.60
50394;BME280;36308;46.312;25.288;2023-07-08T03:07:56;96342.09;;;18.53;68.43
50394;BME280;36308;46.312;25.288;2023-07-08T03:10:21;96340.28;;;18.48;68.23
50394;BME280;36308;46.312;25.288;2023-07-08T03:12:47;96346.34;;;18.45;68.13
50394;BME280;36308;46.312;25.288;2023-07-08T03:15:12;96345.34;;;18.41;68.13
50394;BME280;36308;46.312;25.288;2023-07-08T03:17:38;96343.72;;;18.40;68.38
50394;BME280;36308;46.312;25.288;2023-07-08T03:20:04;96345.94;;;18.38;68.48
50394;BME280;36308;46.312;25.288;2023-07-08T03:22:31;96341.91;;;18.35;68.42
50394;BME280;36308;46.312;25.288;2023-07-08T03:24:56;96344.41;;;18.32;68.64
50394;BME280;36308;46.312;25.288;2023-07-08T03:27:22;96344.72;;;18.30;68.61
50394;BME280;36308;46.312;25.288;2023-07-08T03:29:47;96358.63;;;18.29;68.44
50394;BME280;36308;46.312;25.288;2023-07-08T03:32:13;96355.38;;;18.27;68.61
50394;BME280;36308;46.312;25.288;2023-07-08T03:34:39;96348.31;;;18.26;68.42
50394;BME280;36308;46.312;25.288;2023-07-08T03:37:05;96348.94;;;18.23;68.06
50394;BME280;36308;46.312;25.288;2023-07-08T03:39:31;96352.22;;;18.20;67.96
50394;BME280;36308;46.312;25.288;2023-07-08T03:41:59;96352.84;;;18.16;67.71
50394;BME280;36308;46.312;25.288;2023-07-08T03:44:25;96345.88;;;18.10;67.48
50394;BME280;36308;46.312;25.288;2023-07-08T03:46:51;96347.97;;;18.13;67.25
50394;BME280;36308;46.312;25.288;2023-07-08T03:49:18;96346.09;;;18.14;67.35
50394;BME280;36308;46.312;25.288;2023-07-08T03:51:48;96354.53;;;18.12;67.40
50394;BME280;36308;46.312;25.288;2023-07-08T03:54:14;96348.31;;;18.12;67.27
50394;BME280;36308;46.312;25.288;2023-07-08T03:56:40;96359.47;;;18.10;67.22
50394;BME280;36308;46.312;25.288;2023-07-08T03:59:06;96353.53;;;18.08;67.04
50394;BME280;36308;46.312;25.288;2023-07-08T04:01:32;96359.19;;;18.12;66.91
50394;BME280;36308;46.312;25.288;2023-07-08T04:03:58;96363.81;;;18.11;66.60
50394;BME280;36308;46.312;25.288;2023-07-08T04:06:25;96358.97;;;18.08;66.84
50394;BME280;36308;46.312;25.288;2023-07-08T04:08:51;96363.81;;;18.11;66.63
50394;BME280;36308;46.312;25.288;2023-07-08T04:11:22;96359.47;;;18.10;66.99
50394;BME280;36308;46.312;25.288;2023-07-08T04:13:49;96369.25;;;18.11;66.79
50394;BME280;36308;46.312;25.288;2023-07-08T04:16:27;96356.47;;;18.12;67.43
50394;BME280;36308;46.312;25.288;2023-07-08T04:18:54;96360.78;;;18.13;67.29
50394;BME280;36308;46.312;25.288;2023-07-08T04:21:22;96354.53;;;18.12;67.40
50394;BME280;36308;46.312;25.288;2023-07-08T04:23:48;96355.63;;;18.11;66.90
50394;BME280;36308;46.312;25.288;2023-07-08T04:26:13;96358.34;;;18.11;66.48
50394;BME280;36308;46.312;25.288;2023-07-08T04:28:39;96350.72;;;18.13;66.46
50394;BME280;36308;46.312;25.288;2023-07-08T04:31:04;96349.91;;;18.13;66.27
50394;BME280;36308;46.312;25.288;2023-07-08T04:33:30;96367.03;;;18.13;65.71
50394;BME280;36308;46.312;25.288;2023-07-08T04:35:56;96353.75;;;18.12;65.59
50394;BME280;36308;46.312;25.288;2023-07-08T04:38:25;96352.72;;;18.08;65.36
50394;BME280;36308;46.312;25.288;2023-07-08T04:40:52;96349.09;;;18.12;65.25
50394;BME280;36308;46.312;25.288;2023-07-08T04:43:19;96353.44;;;18.13;65.14
50394;BME280;36308;46.312;25.288;2023-07-08T04:45:47;96354.75;;;18.16;65.04
50394;BME280;36308;46.312;25.288;2023-07-08T04:48:16;96353.34;;;18.18;64.49
50394;BME280;36308;46.312;25.288;2023-07-08T04:50:43;96353.56;;;18.22;64.61
50394;BME280;36308;46.312;25.288;2023-07-08T04:53:10;96346.22;;;18.23;64.37
50394;BME280;36308;46.312;25.288;2023-07-08T04:55:39;96351.53;;;18.28;64.07
50394;BME280;36308;46.312;25.288;2023-07-08T04:58:05;96350.97;;;18.31;64.03
50394;BME280;36308;46.312;25.288;2023-07-08T05:00:31;96353.69;;;18.31;64.20
50394;BME280;36308;46.312;25.288;2023-07-08T05:02:56;96354.72;;;18.35;63.77
50394;BME280;36308;46.312;25.288;2023-07-08T05:05:22;96359.84;;;18.36;63.48
50394;BME280;36308;46.312;25.288;2023-07-08T05:07:47;96362.25;;;18.38;63.36
50394;BME280;36308;46.312;25.288;2023-07-08T05:10:15;96365.47;;;18.40;63.00
50394;BME280;36308;46.312;25.288;2023-07-08T05:12:41;96368.72;;;18.42;62.71
50394;BME280;36308;46.312;25.288;2023-07-08T05:15:07;96347.56;;;18.39;62.82
50394;BME280;36308;46.312;25.288;2023-07-08T05:17:34;96356.63;;;18.48;63.05
50394;BME280;36308;46.312;25.288;2023-07-08T05:19:59;96366.09;;;18.51;63.02
50394;BME280;36308;46.312;25.288;2023-07-08T05:22:27;96366.81;;;18.56;62.88
50394;BME280;36308;46.312;25.288;2023-07-08T05:24:53;96360.78;;;18.60;63.09
50394;BME280;36308;46.312;25.288;2023-07-08T05:27:22;96362.09;;;18.62;63.24
50394;BME280;36308;46.312;25.288;2023-07-08T05:29:48;96367.16;;;18.69;63.04
50394;BME280;36308;46.312;25.288;2023-07-08T05:32:14;96370.38;;;18.71;62.41
50394;BME280;36308;46.312;25.288;2023-07-08T05:34:40;96365.13;;;18.74;61.69
50394;BME280;36308;46.312;25.288;2023-07-08T05:37:06;96369.97;;;18.77;61.65
50394;BME280;36308;46.312;25.288;2023-07-08T05:39:32;96371.00;;;18.82;61.23
50394;BME280;36308;46.312;25.288;2023-07-08T05:41:57;96375.03;;;18.84;61.03
50394;BME280;36308;46.312;25.288;2023-07-08T05:44:23;96370.59;;;18.88;61.06
50394;BME280;36308;46.312;25.288;2023-07-08T05:46:49;96366.16;;;18.92;60.63
50394;BME280;36308;46.312;25.288;2023-07-08T05:49:16;96369.41;;;18.94;60.62
50394;BME280;36308;46.312;25.288;2023-07-08T05:51:43;96367.38;;;19.00;60.51
50394;BME280;36308;46.312;25.288;2023-07-08T05:54:09;96373.03;;;19.04;60.52
50394;BME280;36308;46.312;25.288;2023-07-08T05:56:35;96372.91;;;19.09;60.74
50394;BME280;36308;46.312;25.288;2023-07-08T05:59:00;96375.56;;;19.14;60.80
50394;BME280;36308;46.312;25.288;2023-07-08T06:01:26;96375.44;;;19.19;60.86
50394;BME280;36308;46.312;25.288;2023-07-08T06:03:52;96374.84;;;19.22;60.58
50394;BME280;36308;46.312;25.288;2023-07-08T06:06:17;96389.16;;;19.28;60.73
50394;BME280;36308;46.312;25.288;2023-07-08T06:08:43;96389.34;;;19.31;60.53
50394;BME280;36308;46.312;25.288;2023-07-08T06:11:08;96393.59;;;19.37;60.28
50394;BME280;36308;46.312;25.288;2023-07-08T06:13:34;96390.78;;;19.43;60.24
50394;BME280;36308;46.312;25.288;2023-07-08T06:16:00;96391.78;;;19.47;60.36
50394;BME280;36308;46.312;25.288;2023-07-08T06:18:26;96392.78;;;19.51;59.51
50394;BME280;36308;46.312;25.288;2023-07-08T06:20:56;96389.13;;;19.55;59.10
50394;BME280;36308;46.312;25.288;2023-07-08T06:23:23;96390.94;;;19.60;59.08
50394;BME280;36308;46.312;25.288;2023-07-08T06:25:49;96387.09;;;19.61;59.46
50394;BME280;36308;46.312;25.288;2023-07-08T06:28:15;96404.38;;;19.70;59.15
50394;BME280;36308;46.312;25.288;2023-07-08T06:30:40;96396.06;;;19.75;58.89
50394;BME280;36308;46.312;25.288;2023-07-08T06:33:06;96391.94;;;19.78;58.61
50394;BME280;36308;46.312;25.288;2023-07-08T06:35:32;96396.31;;;19.88;58.65
50394;BME280;36308;46.312;25.288;2023-07-08T06:37:58;96392.34;;;19.94;58.74
50394;BME280;36308;46.312;25.288;2023-07-08T06:40:23;96388.09;;;20.02;58.41
50394;BME280;36308;46.312;25.288;2023-07-08T06:42:49;96388.47;;;20.09;58.06
50394;BME280;36308;46.312;25.288;2023-07-08T06:45:15;96385.31;;;20.15;57.42
50394;BME280;36308;46.312;25.288;2023-07-08T06:47:40;96387.28;;;20.24;57.21
50394;BME280;36308;46.312;25.288;2023-07-08T06:50:06;96382.69;;;20.33;56.65
50394;BME280;36308;46.312;25.288;2023-07-08T06:52:32;96389.63;;;20.39;55.60
50394;BME280;36308;46.312;25.288;2023-07-08T06:55:08;96392.41;;;20.48;54.37
50394;BME280;36308;46.312;25.288;2023-07-08T06:57:34;96381.66;;;20.51;54.36
50394;BME280;36308;46.312;25.288;2023-07-08T07:00:00;96387.50;;;20.58;54.30
50394;BME280;36308;46.312;25.288;2023-07-08T07:02:26;96386.91;;;20.62;53.62
50394;BME280;36308;46.312;25.288;2023-07-08T07:04:52;96387.25;;;20.69;53.21
50394;BME280;36308;46.312;25.288;2023-07-08T07:07:18;96387.13;;;20.74;53.15
50394;BME280;36308;46.312;25.288;2023-07-08T07:09:44;96386.16;;;20.78;52.85
50394;BME280;36308;46.312;25.288;2023-07-08T07:12:09;96395.03;;;20.84;52.43
50394;BME280;36308;46.312;25.288;2023-07-08T07:14:35;96395.53;;;20.86;51.94
50394;BME280;36308;46.312;25.288;2023-07-08T07:17:00;96395.88;;;20.93;51.54
50394;BME280;36308;46.312;25.288;2023-07-08T07:19:26;96400.56;;;21.02;51.49
50394;BME280;36308;46.312;25.288;2023-07-08T07:21:51;96394.97;;;21.07;51.53
50394;BME280;36308;46.312;25.288;2023-07-08T07:24:17;96399.66;;;21.15;50.83
50394;BME280;36308;46.312;25.288;2023-07-08T07:26:43;96400.81;;;21.23;51.02
50394;BME280;36308;46.312;25.288;2023-07-08T07:29:10;96395.69;;;21.30;51.06
50394;BME280;36308;46.312;25.288;2023-07-08T07:31:35;96405.72;;;21.43;51.03
50394;BME280;36308;46.312;25.288;2023-07-08T07:34:02;96403.63;;;21.49;50.83
50394;BME280;36308;46.312;25.288;2023-07-08T07:36:28;96393.50;;;21.58;50.34
50394;BME280;36308;46.312;25.288;2023-07-08T07:38:55;96398.84;;;21.63;50.00
50394;BME280;36308;46.312;25.288;2023-07-08T07:41:21;96404.78;;;21.65;49.27
50394;BME280;36308;46.312;25.288;2023-07-08T07:43:46;96412.34;;;21.68;48.99
50394;BME280;36308;46.312;25.288;2023-07-08T07:46:12;96417.19;;;21.71;49.45
50394;BME280;36308;46.312;25.288;2023-07-08T07:48:39;96414.94;;;21.73;49.39
50394;BME280;36308;46.312;25.288;2023-07-08T07:51:05;96413.31;;;21.72;49.17
50394;BME280;36308;46.312;25.288;2023-07-08T07:53:32;96417.69;;;21.82;49.25
50394;BME280;36308;46.312;25.288;2023-07-08T07:55:59;96424.13;;;21.86;49.32
50394;BME280;36308;46.312;25.288;2023-07-08T07:58:25;96414.94;;;21.91;49.27
50394;BME280;36308;46.312;25.288;2023-07-08T08:00:50;96421.56;;;21.98;49.71
50394;BME280;36308;46.312;25.288;2023-07-08T08:03:16;96415.59;;;22.05;49.78
50394;BME280;36308;46.312;25.288;2023-07-08T08:05:42;96425.25;;;22.11;49.69
50394;BME280;36308;46.312;25.288;2023-07-08T08:08:08;96423.97;;;22.17;49.50
50394;BME280;36308;46.312;25.288;2023-07-08T08:10:35;96421.09;;;22.23;49.70
50394;BME280;36308;46.312;25.288;2023-07-08T08:13:00;96418.69;;;22.30;49.68
50394;BME280;36308;46.312;25.288;2023-07-08T08:15:26;96422.56;;;22.37;49.46
50394;BME280;36308;46.312;25.288;2023-07-08T08:17:52;96425.91;;;22.43;49.22
50394;BME280;36308;46.312;25.288;2023-07-08T08:20:19;96427.03;;;22.51;49.64
50394;BME280;36308;46.312;25.288;2023-07-08T08:22:46;96423.31;;;22.55;49.39
50394;BME280;36308;46.312;25.288;2023-07-08T08:25:12;96425.56;;;22.62;49.21
50394;BME280;36308;46.312;25.288;2023-07-08T08:30:22;96433.59;;;22.76;48.87
50394;BME280;36308;46.312;25.288;2023-07-08T08:32:48;96424.38;;;22.80;48.42
50394;BME280;36308;46.312;25.288;2023-07-08T08:35:14;96432.91;;;22.88;47.63
50394;BME280;36308;46.312;25.288;2023-07-08T08:37:39;96434.66;;;22.92;47.93
50394;BME280;36308;46.312;25.288;2023-07-08T08:40:07;96432.09;;;22.96;48.24
50394;BME280;36308;46.312;25.288;2023-07-08T08:42:49;96450.16;;;23.06;48.06
50394;BME280;36308;46.312;25.288;2023-07-08T08:45:18;96440.47;;;23.08;47.54
50394;BME280;36308;46.312;25.288;2023-07-08T08:47:48;96439.00;;;23.11;47.88
50394;BME280;36308;46.312;25.288;2023-07-08T08:52:57;96445.22;;;23.20;47.66
50394;BME280;36308;46.312;25.288;2023-07-08T08:55:25;96439.56;;;23.25;47.65
50394;BME280;36308;46.312;25.288;2023-07-08T09:00:55;96448.84;;;23.42;47.95
50394;BME280;36308;46.312;25.288;2023-07-08T09:03:34;96448.00;;;23.50;48.61
50394;BME280;36308;46.312;25.288;2023-07-08T09:06:09;96444.88;;;23.60;48.40
50394;BME280;36308;46.312;25.288;2023-07-08T09:08:36;96447.72;;;23.72;47.53
50394;BME280;36308;46.312;25.288;2023-07-08T09:13:35;96457.81;;;23.89;47.36
50394;BME280;36308;46.312;25.288;2023-07-08T09:16:47;96465.34;;;24.01;47.26
50394;BME280;36308;46.312;25.288;2023-07-08T09:19:00;96459.41;;;24.11;45.52
50394;BME280;36308;46.312;25.288;2023-07-08T09:27:05;96456.59;;;24.41;47.15
50394;BME280;36308;46.312;25.288;2023-07-08T09:29:32;96456.22;;;24.51;46.67
50394;BME280;36308;46.312;25.288;2023-07-08T09:31:58;96455.13;;;24.65;46.38
50394;BME280;36308;46.312;25.288;2023-07-08T09:34:37;96446.09;;;24.76;46.40
50394;BME280;36308;46.312;25.288;2023-07-08T09:37:13;96440.84;;;24.84;45.53
50394;BME280;36308;46.312;25.288;2023-07-08T09:39:43;96450.63;;;24.93;45.66
50394;BME280;36308;46.312;25.288;2023-07-08T09:42:09;96446.97;;;25.01;45.73
50394;BME280;36308;46.312;25.288;2023-07-08T09:44:38;96447.00;;;25.14;45.54
50394;BME280;36308;46.312;25.288;2023-07-08T09:47:20;96448.28;;;25.29;46.15
50394;BME280;36308;46.312;25.288;2023-07-08T09:49:47;96451.97;;;25.45;45.41
50394;BME280;36308;46.312;25.288;2023-07-08T09:52:13;96449.56;;;25.56;44.63
50394;BME280;36308;46.312;25.288;2023-07-08T09:54:41;96455.06;;;25.68;44.46
50394;BME280;36308;46.312;25.288;2023-07-08T09:57:24;96441.63;;;25.79;44.43
50394;BME280;36308;46.312;25.288;2023-07-08T10:00:00;96444.22;;;25.88;44.08
50394;BME280;36308;46.312;25.288;2023-07-08T10:05:12;96449.66;;;26.09;44.31
50394;BME280;36308;46.312;25.288;2023-07-08T10:07:38;96452.25;;;26.17;43.46
50394;BME280;36308;46.312;25.288;2023-07-08T10:10:08;96443.84;;;26.26;42.80
50394;BME280;36308;46.312;25.288;2023-07-08T10:12:37;96451.28;;;26.38;41.98
50394;BME280;36308;46.312;25.288;2023-07-08T10:15:15;96440.88;;;26.47;41.24
50394;BME280;36308;46.312;25.288;2023-07-08T10:17:43;96443.19;;;26.57;40.73
50394;BME280;36308;46.312;25.288;2023-07-08T10:20:13;96437.16;;;26.68;39.35
50394;BME280;36308;46.312;25.288;2023-07-08T10:23:03;96440.53;;;26.77;38.51
50394;BME280;36308;46.312;25.288;2023-07-08T10:25:49;96434.50;;;26.87;38.23
50394;BME280;36308;46.312;25.288;2023-07-08T10:28:44;96426.09;;;26.96;37.26
50394;BME280;36308;46.312;25.288;2023-07-08T10:37:07;96427.44;;;27.34;38.24
50394;BME280;36308;46.312;25.288;2023-07-08T10:45:44;96423.94;;;27.69;37.82
50394;BME280;36308;46.312;25.288;2023-07-08T10:48:18;96424.19;;;27.79;38.00
50394;BME280;36308;46.312;25.288;2023-07-08T10:53:51;96421.91;;;28.01;38.42
50394;BME280;36308;46.312;25.288;2023-07-08T10:56:35;96428.75;;;28.07;38.39
50394;BME280;36308;46.312;25.288;2023-07-08T11:09:56;96407.94;;;27.94;37.62
50394;BME280;36308;46.312;25.288;2023-07-08T11:17:45;96420.03;;;28.05;37.41
50394;BME280;36308;46.312;25.288;2023-07-08T11:20:22;96409.41;;;28.07;37.69
50394;BME280;36308;46.312;25.288;2023-07-08T11:22:53;96404.31;;;28.09;37.77
50394;BME280;36308;46.312;25.288;2023-07-08T11:25:24;96402.00;;;28.11;37.60
50394;BME280;36308;46.312;25.288;2023-07-08T11:27:55;96397.19;;;28.08;37.56
50394;BME280;36308;46.312;25.288;2023-07-08T11:30:23;96394.88;;;28.10;37.47
50394;BME280;36308;46.312;25.288;2023-07-08T11:33:04;96398.06;;;28.12;37.19
50394;BME280;36308;46.312;25.288;2023-07-08T11:35:49;96400.41;;;28.10;37.10
50394;BME280;36308;46.312;25.288;2023-07-08T11:38:20;96396.31;;;28.04;36.69
50394;BME280;36308;46.312;25.288;2023-07-08T11:40:52;96389.50;;;27.98;37.05
50394;BME280;36308;46.312;25.288;2023-07-08T11:43:19;96390.19;;;27.95;37.13
50394;BME280;36308;46.312;25.288;2023-07-08T11:45:46;96382.72;;;27.95;37.21
50394;BME280;36308;46.312;25.288;2023-07-08T11:48:18;96389.84;;;27.96;37.12
50394;BME280;36308;46.312;25.288;2023-07-08T11:50:47;96387.88;;;27.97;37.22
50394;BME280;36308;46.312;25.288;2023-07-08T11:56:01;96389.84;;;27.96;37.75
50394;BME280;36308;46.312;25.288;2023-07-08T11:58:29;96382.00;;;27.98;37.55
50394;BME280;36308;46.312;25.288;2023-07-08T12:03:55;96377.25;;;27.99;37.25
50394;BME280;36308;46.312;25.288;2023-07-08T12:08:56;96365.50;;;28.02;37.66
50394;BME280;36308;46.312;25.288;2023-07-08T12:11:34;96367.50;;;28.05;37.98
50394;BME280;36308;46.312;25.288;2023-07-08T12:14:01;96366.50;;;28.13;37.90
50394;BME280;36308;46.312;25.288;2023-07-08T12:16:30;96361.13;;;28.20;38.09
50394;BME280;36308;46.312;25.288;2023-07-08T12:18:58;96362.88;;;28.29;38.10
50394;BME280;36308;46.312;25.288;2023-07-08T12:21:26;96367.00;;;28.38;38.25
50394;BME280;36308;46.312;25.288;2023-07-08T12:23:53;96368.38;;;28.48;37.93
50394;BME280;36308;46.312;25.288;2023-07-08T12:26:19;96372.03;;;28.52;37.08
50394;BME280;36308;46.312;25.288;2023-07-08T12:28:45;96369.53;;;28.47;35.85
50394;BME280;36308;46.312;25.288;2023-07-08T12:31:16;96362.88;;;28.29;36.00
50394;BME280;36308;46.312;25.288;2023-07-08T12:33:44;96357.09;;;28.18;36.62
50394;BME280;36308;46.312;25.288;2023-07-08T12:36:18;96365.78;;;28.16;37.04
50394;BME280;36308;46.312;25.288;2023-07-08T12:38:44;96356.63;;;28.12;37.21
50394;BME280;36308;46.312;25.288;2023-07-08T12:41:22;96358.19;;;28.13;37.06
50394;BME280;36308;46.312;25.288;2023-07-08T12:43:48;96347.59;;;28.15;37.27
50394;BME280;36308;46.312;25.288;2023-07-08T12:46:17;96352.84;;;28.20;37.41
50394;BME280;36308;46.312;25.288;2023-07-08T12:48:43;96348.75;;;28.14;37.15
50394;BME280;36308;46.312;25.288;2023-07-08T12:51:17;96350.06;;;28.20;37.43
50394;BME280;36308;46.312;25.288;2023-07-08T12:53:43;96356.03;;;28.23;36.95
50394;BME280;36308;46.312;25.288;2023-07-08T12:56:10;96358.06;;;28.26;37.32
50394;BME280;36308;46.312;25.288;2023-07-08T12:58:44;96356.03;;;28.23;36.43
50394;BME280;36308;46.312;25.288;2023-07-08T13:01:17;96353.13;;;28.15;36.63
50394;BME280;36308;46.312;25.288;2023-07-08T13:03:45;96345.25;;;28.17;36.98
50394;BME280;36308;46.312;25.288;2023-07-08T13:06:17;96352.53;;;28.26;37.28
50394;BME280;36308;46.312;25.288;2023-07-08T13:08:44;96346.41;;;28.36;37.27
50394;BME280;36308;46.312;25.288;2023-07-08T13:11:14;96346.25;;;28.48;37.14
50394;BME280;36308;46.312;25.288;2023-07-08T13:14:01;96356.66;;;28.55;36.42
50394;BME280;36308;46.312;25.288;2023-07-08T13:16:32;96333.94;;;28.46;36.31
50394;BME280;36308;46.312;25.288;2023-07-08T13:18:59;96341.88;;;28.47;35.81
50394;BME280;36308;46.312;25.288;2023-07-08T13:21:25;96332.81;;;28.27;35.59
50394;BME280;36308;46.312;25.288;2023-07-08T13:23:53;96332.03;;;28.27;35.75
50394;BME280;36308;46.312;25.288;2023-07-08T13:26:21;96336.09;;;28.33;36.08
50394;BME280;36308;46.312;25.288;2023-07-08T13:28:48;96336.22;;;28.40;36.37
50394;BME280;36308;46.312;25.288;2023-07-08T13:31:18;96346.34;;;28.52;36.45
50394;BME280;36308;46.312;25.288;2023-07-08T13:33:49;96328.72;;;28.60;36.42
50394;BME280;36308;46.312;25.288;2023-07-08T13:36:19;96335.16;;;28.68;35.90
50394;BME280;36308;46.312;25.288;2023-07-08T13:38:46;96320.25;;;28.72;36.11
50394;BME280;36308;46.312;25.288;2023-07-08T13:41:19;96328.72;;;28.83;36.00
50394;BME280;36308;46.312;25.288;2023-07-08T13:43:47;96320.09;;;28.88;35.52
50394;BME280;36308;46.312;25.288;2023-07-08T13:51:46;96336.03;;;29.18;35.17
50394;BME280;36308;46.312;25.288;2023-07-08T13:54:25;96340.09;;;29.24;35.12
50394;BME280;36308;46.312;25.288;2023-07-08T13:56:53;96332.22;;;29.26;35.24
50394;BME280;36308;46.312;25.288;2023-07-08T13:59:23;96338.47;;;29.23;34.81
50394;BME280;36308;46.312;25.288;2023-07-08T14:01:51;96334.56;;;29.24;35.31
50394;BME280;36308;46.312;25.288;2023-07-08T14:04:22;96337.75;;;29.26;34.85
50394;BME280;36308;46.312;25.288;2023-07-08T14:06:51;96336.56;;;29.27;34.83